Terminal Aerodrome Forecast
Issued by NWS

Current Version | Previous Version | Text Only | Print | Product List | Glossary On
Versions: 1 2 3 4 5 6 7 8 9 10 11 12 13 14 15 16 17 18 19 20
000
FTUS42 KFFC 242330
TAFPDK
TAF
KPDK 242330Z 2500/2524 20008KT P6SM FEW050 SCT250
     FM250500 20009KT P6SM FEW050 SCT100
     FM250800 20010KT P6SM BKN015
     FM251100 20010KT P6SM VCSH BKN015
     FM251300 23010KT 5SM -SHRA OVC015 PROB30 2513/2518 4SM TSRA
      BKN015CB
     FM251800 27005KT P6SM VCSH OVC025=

USA.gov is the U.S. government's official web portal to all federal, state and local government web resources and services.